Time;durP1;ratioP1;P1;durP2;ratioP2;P2;SDS_P1;SDS_P2;PMS_P1;PMS_P2;Temp;Humidity;BMP_temperature;BMP_pressure;BME280_temperature;BME280_humidity;BME280_pressure;Samples;Min_cycle;Max_cycle;Signal;HPM_P1;HPM_P2
2022/07/02 00:00:58;;;;;;;2.20;1.92;;;13.20;99.90;;;;;;5061452;28;20116;-82
2022/07/02 00:03:30;;;;;;;2.97;2.25;;;13.20;99.90;;;;;;5064544;28;20025;-81
2022/07/02 00:05:58;;;;;;;2.20;1.90;;;13.10;99.90;;;;;;5049218;28;20021;-81
2022/07/02 00:08:25;;;;;;;4.95;3.20;;;13.10;99.90;;;;;;5051276;28;20017;-81
2022/07/02 00:10:55;;;;;;;5.78;3.40;;;13.10;99.90;;;;;;5084886;28;20039;-81
2022/07/02 00:13:22;;;;;;;3.58;2.83;;;13.10;99.90;;;;;;5093828;28;20088;-81
2022/07/02 00:15:48;;;;;;;3.47;2.53;;;13.10;99.90;;;;;;5090842;28;20051;-82
2022/07/02 00:18:15;;;;;;;4.00;3.03;;;13.10;99.90;;;;;;5048957;28;20029;-82
2022/07/02 00:20:44;;;;;;;2.90;2.30;;;13.00;99.90;;;;;;5048664;28;20060;-80
2022/07/02 00:23:11;;;;;;;3.35;2.38;;;13.00;99.90;;;;;;5049049;28;20478;-79
2022/07/02 00:25:40;;;;;;;2.05;1.85;;;13.00;99.90;;;;;;5049326;28;20025;-81
2022/07/02 00:28:07;;;;;;;2.15;1.95;;;13.00;99.90;;;;;;5048276;28;20025;-80
2022/07/02 00:30:33;;;;;;;3.42;2.55;;;12.90;99.90;;;;;;5049364;28;20076;-82
2022/07/02 00:33:01;;;;;;;2.75;2.13;;;12.90;99.90;;;;;;5051686;28;20024;-81
2022/07/02 00:35:27;;;;;;;2.30;2.10;;;13.00;99.90;;;;;;5069519;28;20081;-82
2022/07/02 00:37:53;;;;;;;4.25;3.10;;;13.00;99.90;;;;;;5071976;28;20017;-81
2022/07/02 00:40:20;;;;;;;2.55;2.35;;;12.90;99.90;;;;;;5078132;28;20084;-80
2022/07/02 00:42:47;;;;;;;2.50;2.30;;;12.90;99.90;;;;;;5090948;28;20040;-81
2022/07/02 00:45:12;;;;;;;2.75;2.20;;;12.90;99.90;;;;;;5091393;28;20017;-80
2022/07/02 00:47:41;;;;;;;2.90;2.60;;;12.80;99.90;;;;;;5091784;28;20012;-80
2022/07/02 00:50:08;;;;;;;4.50;3.72;;;12.90;99.90;;;;;;5075212;28;20437;-81
2022/07/02 00:52:34;;;;;;;5.10;3.90;;;12.80;99.90;;;;;;5052059;28;20041;-81
2022/07/02 00:55:00;;;;;;;4.50;3.45;;;12.80;99.90;;;;;;5054314;28;20032;-79
2022/07/02 00:57:26;;;;;;;3.38;2.97;;;12.80;99.90;;;;;;5057745;28;20063;-78
2022/07/02 00:59:52;;;;;;;2.40;2.20;;;12.70;99.90;;;;;;5057449;28;20077;-79
2022/07/02 01:02:22;;;;;;;2.50;2.30;;;12.70;99.90;;;;;;5057341;28;20084;-80
2022/07/02 01:04:49;;;;;;;2.55;2.38;;;12.70;99.90;;;;;;5050083;28;20036;-82
2022/07/02 01:07:16;;;;;;;2.67;2.47;;;12.70;99.90;;;;;;5061413;28;20085;-81
2022/07/02 01:12:34;;;;;;;3.33;3.03;;;12.60;99.90;;;;;;5076188;28;20043;-80
2022/07/02 01:15:00;;;;;;;3.00;2.78;;;12.60;99.90;;;;;;5073178;28;20072;-81
2022/07/02 01:17:25;;;;;;;3.33;2.75;;;12.60;99.90;;;;;;5071568;28;20036;-82
2022/07/02 01:19:52;;;;;;;4.30;2.53;;;12.60;99.90;;;;;;5067636;28;20033;-81
2022/07/02 01:22:18;;;;;;;2.67;2.47;;;12.50;99.90;;;;;;5068825;28;20025;-80
2022/07/02 01:24:45;;;;;;;2.47;2.28;;;12.60;99.90;;;;;;5069812;28;20052;-79
2022/07/02 01:27:12;;;;;;;4.47;4.00;;;12.60;99.90;;;;;;5074236;28;20025;-79
2022/07/02 01:29:37;;;;;;;4.05;3.65;;;12.60;99.90;;;;;;5071024;28;20016;-81
2022/07/02 01:32:04;;;;;;;3.30;3.00;;;12.60;99.90;;;;;;5071372;28;20104;-79
2022/07/02 01:34:38;;;;;;;2.80;2.60;;;12.50;99.90;;;;;;5067237;28;20028;-80
2022/07/02 01:37:07;;;;;;;3.35;3.05;;;12.50;99.90;;;;;;5068020;28;20017;-79
2022/07/02 01:39:32;;;;;;;3.42;3.10;;;12.50;99.90;;;;;;5071130;28;20025;-82
2022/07/02 01:41:58;;;;;;;3.30;3.00;;;12.50;99.90;;;;;;5059074;28;20083;-82
2022/07/02 01:44:24;;;;;;;3.85;3.28;;;12.50;99.90;;;;;;5047768;28;20029;-78
2022/07/02 01:46:49;;;;;;;4.47;4.05;;;12.60;99.90;;;;;;5046785;28;20090;-81
2022/07/02 01:49:15;;;;;;;6.28;3.80;;;12.60;99.90;;;;;;5047825;28;20029;-81
2022/07/02 01:51:41;;;;;;;5.05;3.42;;;12.60;99.90;;;;;;5047380;28;20053;-81
2022/07/02 01:54:07;;;;;;;3.40;2.80;;;12.60;99.90;;;;;;5046162;28;20029;-81
2022/07/02 01:56:36;;;;;;;3.53;3.13;;;12.60;99.90;;;;;;5048337;28;20024;-80
2022/07/02 01:59:02;;;;;;;3.60;3.00;;;12.50;99.90;;;;;;5046497;28;20041;-81
2022/07/02 02:01:28;;;;;;;5.25;3.20;;;12.50;99.90;;;;;;5047824;28;20055;-81
2022/07/02 02:03:53;;;;;;;3.35;3.05;;;12.50;99.90;;;;;;5047890;28;20101;-81
2022/07/02 02:06:19;;;;;;;3.20;2.90;;;12.50;99.90;;;;;;5047115;28;20025;-81
2022/07/02 02:08:44;;;;;;;5.28;3.42;;;12.50;99.90;;;;;;5052332;28;20024;-80
2022/07/02 02:11:10;;;;;;;3.83;3.47;;;12.50;99.90;;;;;;5076572;28;20024;-81
2022/07/02 02:13:36;;;;;;;7.68;4.90;;;12.50;99.90;;;;;;5083472;28;20017;-80
2022/07/02 02:16:02;;;;;;;5.80;5.05;;;12.50;99.90;;;;;;5067214;28;20012;-81
2022/07/02 02:18:28;;;;;;;6.03;5.00;;;12.50;99.90;;;;;;5067341;28;20024;-81
2022/07/02 02:20:54;;;;;;;5.45;4.95;;;12.50;99.90;;;;;;5067701;28;20164;-79
2022/07/02 02:23:19;;;;;;;5.60;5.10;;;12.50;99.90;;;;;;5065401;28;20063;-80
2022/07/02 02:25:45;;;;;;;6.22;4.65;;;12.50;99.90;;;;;;5065632;28;20028;-80
2022/07/02 02:28:11;;;;;;;4.70;4.10;;;12.50;99.90;;;;;;5066191;28;20091;-80
2022/07/02 02:30:36;;;;;;;3.50;3.20;;;12.40;99.90;;;;;;5058689;28;20379;-81
2022/07/02 02:33:02;;;;;;;4.18;3.78;;;12.40;99.90;;;;;;5044493;28;20033;-81
2022/07/02 02:35:28;;;;;;;4.00;3.60;;;12.40;99.90;;;;;;5046931;28;20070;-79
2022/07/02 02:37:53;;;;;;;3.58;3.15;;;12.40;99.90;;;;;;5045917;28;20032;-80
2022/07/02 02:40:19;;;;;;;3.55;3.25;;;12.40;99.90;;;;;;5068794;28;20029;-81
2022/07/02 02:42:45;;;;;;;3.45;3.03;;;12.30;99.90;;;;;;5065341;28;20037;-79
2022/07/02 02:45:11;;;;;;;3.85;3.55;;;12.30;99.90;;;;;;5065096;28;20492;-80
2022/07/02 02:47:36;;;;;;;3.28;2.95;;;12.30;99.90;;;;;;5061589;28;20615;-80
2022/07/02 02:50:04;;;;;;;3.47;3.17;;;12.30;99.90;;;;;;5058536;28;20032;-79
2022/07/02 02:52:30;;;;;;;3.38;3.08;;;12.20;99.90;;;;;;5060849;28;20464;-81
2022/07/02 02:54:56;;;;;;;2.72;2.47;;;12.20;99.90;;;;;;5062264;28;20021;-81
2022/07/02 02:57:21;;;;;;;2.20;2.10;;;12.20;99.90;;;;;;5062823;28;20041;-79
2022/07/02 02:59:47;;;;;;;2.55;2.35;;;12.20;99.90;;;;;;5064239;28;20013;-80
2022/07/02 03:02:13;;;;;;;3.42;3.13;;;12.20;99.90;;;;;;5064512;28;20029;-80
2022/07/02 03:04:38;;;;;;;3.20;2.90;;;12.20;99.90;;;;;;5062507;28;20029;-80
2022/07/02 03:07:04;;;;;;;2.80;2.60;;;12.10;99.90;;;;;;5065455;28;20076;-81
2022/07/02 03:09:30;;;;;;;2.50;2.30;;;12.10;99.90;;;;;;5072012;28;20031;-81
2022/07/02 03:11:55;;;;;;;2.80;2.20;;;12.10;99.90;;;;;;5076288;28;20017;-80
2022/07/02 03:14:21;;;;;;;2.28;2.08;;;12.10;99.90;;;;;;5089734;28;20401;-81
2022/07/02 03:16:47;;;;;;;2.50;2.30;;;12.20;99.90;;;;;;5087161;28;20052;-80
2022/07/02 03:19:13;;;;;;;3.17;2.40;;;12.20;99.90;;;;;;5086900;28;20021;-82
2022/07/02 03:21:38;;;;;;;2.63;2.42;;;12.10;99.90;;;;;;5057682;28;20033;-81
2022/07/02 03:24:04;;;;;;;2.55;2.35;;;12.10;99.90;;;;;;5044645;28;20060;-80
2022/07/02 03:26:30;;;;;;;3.15;2.70;;;12.10;99.90;;;;;;5042817;28;20041;-81
2022/07/02 03:28:55;;;;;;;3.50;2.20;;;12.10;99.90;;;;;;5047439;28;20033;-81
2022/07/02 03:31:21;;;;;;;3.05;2.45;;;12.10;99.90;;;;;;5047691;28;20029;-80
2022/07/02 03:33:47;;;;;;;3.03;2.50;;;12.10;99.90;;;;;;5047650;28;20017;-81
2022/07/02 03:36:13;;;;;;;2.47;2.28;;;12.10;99.90;;;;;;5048532;28;20381;-80
2022/07/02 03:38:39;;;;;;;2.35;2.15;;;12.10;99.90;;;;;;5069526;28;20033;-79
2022/07/02 03:41:06;;;;;;;2.00;1.90;;;12.00;99.90;;;;;;5078637;28;20052;-79
2022/07/02 03:43:32;;;;;;;2.70;1.98;;;12.00;99.90;;;;;;5089398;28;20404;-80
2022/07/02 03:45:58;;;;;;;2.25;2.05;;;12.00;99.90;;;;;;5088392;28;20017;-80
2022/07/02 03:48:24;;;;;;;1.70;1.60;;;12.00;99.90;;;;;;5090935;28;20048;-80
2022/07/02 03:50:49;;;;;;;1.95;1.85;;;12.00;99.90;;;;;;5091132;28;20090;-79
2022/07/02 03:53:15;;;;;;;2.50;2.35;;;12.00;99.90;;;;;;5082823;28;20071;-80
2022/07/02 03:55:41;;;;;;;4.28;3.47;;;12.00;99.90;;;;;;5067586;28;20032;-78
2022/07/02 03:58:06;;;;;;;2.63;2.08;;;12.00;99.90;;;;;;5065542;28;20029;-78
2022/07/02 04:00:32;;;;;;;1.90;1.80;;;12.00;99.90;;;;;;5060631;28;20021;-79
2022/07/02 04:02:58;;;;;;;2.35;2.15;;;12.00;99.90;;;;;;5066540;28;20450;-80
2022/07/02 04:05:24;;;;;;;1.90;1.75;;;12.00;99.90;;;;;;5064806;28;20021;-80
2022/07/02 04:07:49;;;;;;;3.90;2.10;;;12.00;99.90;;;;;;5066422;28;20045;-79
2022/07/02 04:10:15;;;;;;;1.83;1.73;;;11.90;99.90;;;;;;5070895;28;20079;-79
2022/07/02 04:12:41;;;;;;;1.63;1.52;;;12.00;99.90;;;;;;5084360;28;20036;-78
2022/07/02 04:15:07;;;;;;;2.88;1.70;;;12.00;99.90;;;;;;5083415;28;20032;-80
2022/07/02 04:17:32;;;;;;;1.83;1.73;;;12.00;99.90;;;;;;5083301;28;20174;-80
2022/07/02 04:19:58;;;;;;;1.42;1.33;;;12.10;99.90;;;;;;5085150;28;20024;-79
2022/07/02 04:22:24;;;;;;;2.33;2.13;;;12.10;99.90;;;;;;5083448;28;20012;-81
2022/07/02 04:24:49;;;;;;;2.35;2.15;;;12.20;99.90;;;;;;5087267;28;20024;-83
2022/07/02 04:27:17;;;;;;;2.40;2.08;;;12.10;99.90;;;;;;5075416;28;20024;-80
2022/07/02 04:29:43;;;;;;;4.65;3.42;;;12.20;99.90;;;;;;5070883;28;20040;-82
2022/07/02 04:32:09;;;;;;;2.58;2.38;;;12.20;99.90;;;;;;5069219;28;20484;-81
2022/07/02 04:34:34;;;;;;;1.70;1.60;;;12.20;99.90;;;;;;5068400;28;20107;-81
2022/07/02 04:37:00;;;;;;;2.50;2.30;;;12.20;99.90;;;;;;5068821;28;20021;-80
2022/07/02 04:39:26;;;;;;;2.55;2.35;;;12.20;99.90;;;;;;5079186;28;20040;-80
2022/07/02 04:41:51;;;;;;;3.10;2.83;;;12.20;99.90;;;;;;5082623;28;20039;-83
2022/07/02 04:44:17;;;;;;;2.83;2.63;;;12.10;99.90;;;;;;5061302;28;20535;-83
2022/07/02 04:46:43;;;;;;;2.75;2.38;;;12.10;99.90;;;;;;5050624;28;20041;-82
2022/07/02 04:49:08;;;;;;;3.05;2.80;;;12.10;99.90;;;;;;5051030;28;20033;-82
2022/07/02 04:51:34;;;;;;;2.63;2.42;;;12.10;99.90;;;;;;5049374;28;20117;-81
2022/07/02 04:54:00;;;;;;;3.13;2.40;;;12.20;99.90;;;;;;5053444;28;20077;-79
2022/07/02 04:56:27;;;;;;;3.20;3.00;;;12.40;99.90;;;;;;5052310;28;20426;-81
2022/07/02 04:58:53;;;;;;;3.25;2.95;;;12.50;99.90;;;;;;5051992;28;20049;-81
2022/07/02 05:01:19;;;;;;;2.70;2.50;;;12.60;99.90;;;;;;5065294;28;20453;-80
2022/07/02 05:03:45;;;;;;;2.15;2.05;;;12.70;99.90;;;;;;5069599;28;20017;-81
2022/07/02 05:06:10;;;;;;;2.10;1.92;;;13.00;99.90;;;;;;5069945;28;20029;-80
2022/07/02 05:08:36;;;;;;;1.75;1.65;;;13.30;99.90;;;;;;5070975;28;20025;-82
2022/07/02 05:11:02;;;;;;;1.83;1.38;;;13.70;99.90;;;;;;5084634;28;20075;-81
2022/07/02 05:13:27;;;;;;;1.73;1.63;;;14.30;99.90;;;;;;5069665;28;20044;-80
2022/07/02 05:15:53;;;;;;;1.45;1.35;;;15.10;99.90;;;;;;5070695;28;20029;-81
2022/07/02 05:18:19;;;;;;;1.33;1.25;;;16.20;99.90;;;;;;5053382;28;20040;-80
2022/07/02 05:20:44;;;;;;;1.60;1.50;;;16.30;98.30;;;;;;5050884;28;20581;-81
2022/07/02 05:23:10;;;;;;;1.10;0.90;;;16.70;97.70;;;;;;5048344;28;20053;-82
2022/07/02 05:25:36;;;;;;;0.70;0.70;;;17.70;98.20;;;;;;5049802;28;20358;-80
2022/07/02 05:28:01;;;;;;;1.35;1.25;;;19.60;92.20;;;;;;5049997;28;20033;-80
2022/07/02 05:30:27;;;;;;;0.60;0.60;;;20.70;86.00;;;;;;5050816;28;20030;-81
2022/07/02 05:32:53;;;;;;;0.82;0.82;;;20.40;81.50;;;;;;5050615;28;20043;-80
2022/07/02 05:35:18;;;;;;;0.77;0.77;;;19.50;83.40;;;;;;5071521;28;20093;-80
2022/07/02 05:37:44;;;;;;;0.68;0.68;;;18.70;85.50;;;;;;5069081;28;20024;-79
2022/07/02 05:40:10;;;;;;;1.13;1.13;;;18.20;88.50;;;;;;5078588;28;20206;-80
2022/07/02 05:42:36;;;;;;;0.95;0.95;;;18.10;89.90;;;;;;5087387;28;20054;-80
2022/07/02 05:45:02;;;;;;;0.88;0.75;;;18.10;90.90;;;;;;5088759;28;20040;-80
2022/07/02 05:47:28;;;;;;;0.60;0.60;;;18.20;90.40;;;;;;5089438;28;20037;-82
2022/07/02 05:49:55;;;;;;;0.50;0.50;;;19.10;90.70;;;;;;5086557;28;20041;-80
2022/07/02 05:52:21;;;;;;;0.55;0.55;;;19.30;89.00;;;;;;5068691;28;20048;-80
2022/07/02 05:54:46;;;;;;;0.60;0.60;;;20.90;85.50;;;;;;5068359;28;20032;-82
2022/07/02 05:57:12;;;;;;;0.55;0.55;;;24.00;77.10;;;;;;5068591;28;20025;-81
2022/07/02 05:59:38;;;;;;;0.95;0.68;;;26.70;67.60;;;;;;5068041;28;20063;-82
2022/07/02 06:02:04;;;;;;;0.40;0.32;;;28.50;60.40;;;;;;5066086;28;20033;-82
2022/07/02 06:04:31;;;;;;;0.25;0.25;;;29.80;56.30;;;;;;5066416;28;20091;-81
2022/07/02 06:09:42;;;;;;;0.63;0.30;;;31.10;50.80;;;;;;5079111;28;20043;-82
2022/07/02 06:12:08;;;;;;;0.50;0.50;;;31.70;50.00;;;;;;5087824;28;20036;-83
2022/07/02 06:14:33;;;;;;;0.30;0.30;;;32.10;48.80;;;;;;5088221;28;20103;-83
2022/07/02 06:16:59;;;;;;;0.63;0.50;;;32.30;47.60;;;;;;5092716;28;20024;-79
2022/07/02 06:19:25;;;;;;;1.73;0.40;;;32.40;47.00;;;;;;5096022;28;20029;-79
2022/07/02 06:21:51;;;;;;;1.30;0.40;;;32.40;47.10;;;;;;5095812;28;20156;-80
2022/07/02 06:24:16;;;;;;;0.38;0.38;;;32.70;47.20;;;;;;5078111;28;20030;-81
2022/07/02 06:26:42;;;;;;;0.50;0.50;;;33.30;46.60;;;;;;5058140;28;20025;-83
2022/07/02 06:29:07;;;;;;;0.52;0.52;;;33.50;44.30;;;;;;5043292;28;20121;-82
2022/07/02 06:31:33;;;;;;;0.57;0.57;;;31.90;45.50;;;;;;5042832;28;20025;-82
2022/07/02 06:33:59;;;;;;;0.60;0.60;;;31.20;46.80;;;;;;5045827;28;20025;-81
2022/07/02 06:36:25;;;;;;;1.40;0.50;;;30.40;47.20;;;;;;5050259;28;20033;-82
2022/07/02 06:38:51;;;;;;;1.35;0.60;;;29.80;49.20;;;;;;5057874;28;20449;-81
2022/07/02 06:44:03;;;;;;;0.70;0.50;;;29.70;49.70;;;;;;5050335;28;20072;-81
2022/07/02 06:46:28;;;;;;;1.70;0.60;;;30.50;49.10;;;;;;5047117;28;20026;-80
2022/07/02 06:48:54;;;;;;;1.05;0.63;;;30.60;47.70;;;;;;5044943;28;20036;-82
2022/07/02 06:51:20;;;;;;;0.50;0.50;;;30.30;48.50;;;;;;5046887;28;20038;-81
2022/07/02 06:53:46;;;;;;;0.35;0.35;;;29.80;49.30;;;;;;5047198;28;20025;-82
2022/07/02 06:56:12;;;;;;;1.48;0.60;;;30.70;48.70;;;;;;5052715;28;20031;-82
2022/07/02 06:58:37;;;;;;;0.50;0.50;;;31.30;47.90;;;;;;5065814;28;20044;-82
2022/07/02 07:01:03;;;;;;;0.82;0.50;;;31.20;46.90;;;;;;5066564;28;20032;-81
2022/07/02 07:03:29;;;;;;;0.50;0.50;;;30.70;46.90;;;;;;5068271;28;20017;-82
2022/07/02 07:05:54;;;;;;;1.00;0.60;;;30.90;47.60;;;;;;5072028;28;20037;-81
2022/07/02 07:08:20;;;;;;;2.40;0.60;;;30.60;47.60;;;;;;5070981;28;20076;-82
2022/07/02 07:10:46;;;;;;;1.77;0.88;;;30.90;47.10;;;;;;5082912;28;20037;-81
2022/07/02 07:13:11;;;;;;;0.55;0.55;;;31.30;47.10;;;;;;5067965;28;20032;-81
2022/07/02 07:15:37;;;;;;;0.77;0.50;;;31.70;46.40;;;;;;5052264;28;20033;-81
2022/07/02 07:18:03;;;;;;;0.50;0.47;;;31.80;46.40;;;;;;5053714;28;20025;-81
2022/07/02 07:20:29;;;;;;;0.98;0.70;;;31.70;45.90;;;;;;5053419;28;20048;-81
2022/07/02 07:22:59;;;;;;;0.50;0.50;;;31.30;46.90;;;;;;5053348;28;20106;-82
2022/07/02 07:25:25;;;;;;;2.47;0.85;;;29.40;47.60;;;;;;5052868;28;20071;-83
2022/07/02 07:27:51;;;;;;;1.05;0.80;;;26.20;51.80;;;;;;5052483;28;20091;-81
2022/07/02 07:30:16;;;;;;;0.73;0.60;;;23.50;57.50;;;;;;5067936;28;20041;-81
2022/07/02 07:32:43;;;;;;;0.98;0.47;;;21.70;63.30;;;;;;5071779;28;20044;-82
2022/07/02 07:35:09;;;;;;;0.82;0.40;;;20.50;66.80;;;;;;5073213;28;20029;-82
2022/07/02 07:37:38;;;;;;;0.65;0.57;;;19.50;70.70;;;;;;5075993;28;20025;-81
2022/07/02 07:40:04;;;;;;;0.50;0.35;;;18.80;73.60;;;;;;5082398;28;20139;-82
2022/07/02 07:42:30;;;;;;;0.85;0.55;;;18.50;76.20;;;;;;5089417;28;20043;-81
2022/07/02 07:44:56;;;;;;;0.38;0.30;;;18.40;77.70;;;;;;5090919;28;20025;-81
2022/07/02 07:47:21;;;;;;;0.45;0.30;;;18.30;78.20;;;;;;5069275;28;20025;-82
2022/07/02 07:49:47;;;;;;;0.35;0.30;;;18.20;79.50;;;;;;5068894;28;20063;-82
2022/07/02 07:52:13;;;;;;;0.30;0.30;;;18.10;80.10;;;;;;5069702;28;20039;-82
2022/07/02 07:54:38;;;;;;;1.42;0.40;;;18.00;80.70;;;;;;5070985;28;20032;-82
2022/07/02 07:57:05;;;;;;;1.55;0.63;;;17.90;81.80;;;;;;5069835;28;20029;-81
2022/07/02 07:59:30;;;;;;;0.40;0.40;;;17.90;82.30;;;;;;5069361;28;20064;-81
2022/07/02 08:01:56;;;;;;;0.68;0.50;;;17.90;83.00;;;;;;5070597;28;20052;-82
2022/07/02 08:04:22;;;;;;;0.22;0.22;;;18.00;83.00;;;;;;5071624;28;20040;-82
2022/07/02 08:06:47;;;;;;;2.67;0.73;;;18.00;82.40;;;;;;5075198;28;20031;-79
2022/07/02 08:09:13;;;;;;;0.73;0.28;;;18.00;83.00;;;;;;5085708;28;20031;-79
2022/07/02 08:11:39;;;;;;;2.63;0.50;;;18.10;83.40;;;;;;5070615;28;20037;-80
2022/07/02 08:14:05;;;;;;;0.28;0.28;;;18.20;83.00;;;;;;5071731;28;20085;-80
2022/07/02 08:16:31;;;;;;;2.38;0.20;;;18.10;81.50;;;;;;5071353;28;20033;-82
2022/07/02 08:18:57;;;;;;;2.75;0.50;;;18.10;82.20;;;;;;5064947;28;20022;-81
2022/07/02 08:21:22;;;;;;;0.63;0.40;;;18.10;82.10;;;;;;5048466;28;20032;-83
2022/07/02 08:23:48;;;;;;;2.13;0.30;;;18.20;82.10;;;;;;5048971;28;20065;-81
2022/07/02 08:26:14;;;;;;;2.58;0.50;;;18.20;82.60;;;;;;5050552;28;20036;-81
2022/07/02 08:28:39;;;;;;;2.22;0.50;;;18.30;82.00;;;;;;5050312;28;20032;-80
2022/07/02 08:31:05;;;;;;;0.68;0.60;;;18.40;82.40;;;;;;5048182;28;20037;-80
2022/07/02 08:33:31;;;;;;;0.70;0.40;;;18.50;82.00;;;;;;5050086;28;20109;-82
2022/07/02 08:35:57;;;;;;;0.85;0.30;;;18.60;82.20;;;;;;5053416;28;20026;-80
2022/07/02 08:38:22;;;;;;;0.43;0.35;;;18.70;81.20;;;;;;5052926;28;20033;-82
2022/07/02 08:40:48;;;;;;;1.15;0.43;;;18.90;79.90;;;;;;5084704;28;20108;-81
2022/07/02 08:43:16;;;;;;;0.93;0.70;;;19.00;78.90;;;;;;5092640;28;20025;-81
2022/07/02 08:45:43;;;;;;;0.30;0.30;;;19.00;79.00;;;;;;5091032;28;20020;-81
2022/07/02 08:48:10;;;;;;;0.40;0.40;;;19.20;78.40;;;;;;5090117;28;20024;-82
2022/07/02 08:50:37;;;;;;;0.75;0.60;;;19.20;78.00;;;;;;5088686;28;20021;-81
2022/07/02 08:53:04;;;;;;;0.70;0.57;;;19.40;77.90;;;;;;5065901;28;20328;-81
2022/07/02 08:55:32;;;;;;;0.75;0.30;;;19.40;78.10;;;;;;5050154;28;20029;-82
2022/07/02 08:57:59;;;;;;;0.50;0.50;;;19.60;78.00;;;;;;5047454;28;20053;-80
2022/07/02 09:00:25;;;;;;;3.35;0.60;;;19.70;77.70;;;;;;5049346;28;20030;-83
2022/07/02 09:02:53;;;;;;;0.70;0.68;;;19.60;77.80;;;;;;5048615;28;20137;-81
2022/07/02 09:05:21;;;;;;;2.38;0.50;;;19.60;78.60;;;;;;5051039;28;20021;-81
2022/07/02 09:07:47;;;;;;;0.50;0.50;;;19.70;78.30;;;;;;5049304;28;20049;-81
2022/07/02 09:10:14;;;;;;;0.93;0.70;;;19.80;77.90;;;;;;5071427;28;20333;-83
2022/07/02 09:12:40;;;;;;;0.60;0.60;;;20.00;76.40;;;;;;5069017;28;20021;-80
2022/07/02 09:15:06;;;;;;;0.57;0.57;;;20.00;74.70;;;;;;5068842;28;20040;-83
2022/07/02 09:17:32;;;;;;;2.65;0.85;;;20.00;75.20;;;;;;5068607;28;20035;-81
2022/07/02 09:19:59;;;;;;;1.35;0.75;;;20.00;73.90;;;;;;5068320;28;20025;-84
2022/07/02 09:22:45;;;;;;;0.60;0.60;;;20.00;73.50;;;;;;5068312;28;20037;-83
2022/07/02 09:25:16;;;;;;;1.63;0.60;;;20.00;73.20;;;;;;5068403;28;20025;-82
2022/07/02 09:27:44;;;;;;;0.57;0.57;;;19.90;73.90;;;;;;5068742;28;20056;-83
2022/07/02 09:30:14;;;;;;;0.55;0.55;;;20.00;74.80;;;;;;5071127;28;20017;-82
2022/07/02 09:32:42;;;;;;;1.02;0.68;;;20.20;73.70;;;;;;5073039;28;20029;-77
2022/07/02 09:35:16;;;;;;;1.27;0.55;;;20.50;72.70;;;;;;5070363;28;20147;-80
2022/07/02 09:37:42;;;;;;;0.50;0.50;;;20.80;71.50;;;;;;5065294;28;20028;-82
2022/07/02 09:40:08;;;;;;;0.60;0.60;;;21.00;70.10;;;;;;5063071;28;20040;-81
2022/07/02 09:42:34;;;;;;;0.65;0.50;;;21.20;69.80;;;;;;5065908;28;20056;-83
2022/07/02 09:45:05;;;;;;;0.93;0.50;;;21.40;69.80;;;;;;5065134;28;20047;-83
2022/07/02 09:47:36;;;;;;;1.75;0.50;;;21.60;67.70;;;;;;5070856;28;20290;-82
2022/07/02 09:50:04;;;;;;;0.65;0.65;;;21.70;68.00;;;;;;5071242;28;20029;-79
2022/07/02 09:52:30;;;;;;;0.75;0.70;;;21.80;65.70;;;;;;5072554;28;20020;-80
2022/07/02 09:54:56;;;;;;;0.60;0.60;;;21.80;65.60;;;;;;5076065;28;20009;-81
2022/07/02 09:57:22;;;;;;;2.05;0.63;;;21.70;65.50;;;;;;5066912;28;20053;-80
2022/07/02 09:59:48;;;;;;;1.08;0.77;;;21.50;65.90;;;;;;5063248;28;20025;-79
2022/07/02 10:02:22;;;;;;;1.40;0.80;;;21.60;65.60;;;;;;5065222;28;20017;-82
2022/07/02 10:04:53;;;;;;;1.27;0.80;;;21.60;66.20;;;;;;5063383;28;20024;-81
2022/07/02 10:07:21;;;;;;;0.80;0.80;;;21.80;65.40;;;;;;5065453;28;20025;-83
2022/07/02 10:09:48;;;;;;;1.10;0.60;;;21.90;65.50;;;;;;5060372;28;20129;-83
2022/07/02 10:12:15;;;;;;;0.60;0.60;;;21.90;62.60;;;;;;5070220;28;20099;-81
2022/07/02 10:14:46;;;;;;;0.95;0.80;;;22.00;63.10;;;;;;5066080;28;20020;-81
2022/07/02 10:17:14;;;;;;;1.00;0.88;;;22.10;63.40;;;;;;5050305;28;20029;-81
2022/07/02 10:19:40;;;;;;;4.30;1.20;;;22.20;63.30;;;;;;5046276;28;20036;-81
2022/07/02 10:22:07;;;;;;;0.70;0.70;;;22.30;63.90;;;;;;5046218;28;20021;-82
2022/07/02 10:24:34;;;;;;;0.70;0.70;;;22.40;61.50;;;;;;5046817;28;20036;-81
2022/07/02 10:27:01;;;;;;;0.90;0.70;;;22.60;61.10;;;;;;5045874;28;20096;-81
2022/07/02 10:29:28;;;;;;;1.98;0.90;;;22.70;59.60;;;;;;5047610;28;20025;-82
2022/07/02 10:32:15;;;;;;;0.80;0.80;;;22.70;58.60;;;;;;5048352;28;20063;-82
2022/07/02 10:34:47;;;;;;;1.10;0.85;;;22.90;57.40;;;;;;5049960;28;20040;-82
2022/07/02 10:37:16;;;;;;;1.45;0.90;;;23.00;56.90;;;;;;5048398;28;20025;-82
2022/07/02 10:39:43;;;;;;;0.90;0.90;;;23.00;58.10;;;;;;5067666;28;20094;-83
2022/07/02 10:42:09;;;;;;;1.10;1.00;;;23.10;58.50;;;;;;5081448;28;20050;-81
2022/07/02 10:44:42;;;;;;;2.20;0.90;;;23.00;58.60;;;;;;5086191;28;20112;-81
2022/07/02 10:47:17;;;;;;;1.20;1.10;;;23.00;59.60;;;;;;5087844;28;20038;-80
2022/07/02 10:49:43;;;;;;;0.98;0.98;;;23.10;58.70;;;;;;5078892;28;20053;-82
2022/07/02 10:52:09;;;;;;;1.40;1.08;;;23.20;59.10;;;;;;5068689;28;20072;-83
2022/07/02 10:54:35;;;;;;;0.60;0.60;;;23.20;59.30;;;;;;5067179;28;20389;-79
2022/07/02 10:57:00;;;;;;;0.75;0.75;;;23.10;60.10;;;;;;5067145;28;20017;-82
2022/07/02 10:59:33;;;;;;;0.90;0.60;;;23.10;59.80;;;;;;5066929;28;20021;-82
2022/07/02 11:02:06;;;;;;;0.80;0.80;;;23.30;59.20;;;;;;5067299;28;20280;-82
2022/07/02 11:04:32;;;;;;;2.00;0.70;;;23.50;58.40;;;;;;5066401;28;20021;-81
2022/07/02 11:07:09;;;;;;;3.10;0.75;;;23.90;57.40;;;;;;5053041;28;20474;-81
2022/07/02 11:10:05;;;;;;;0.77;0.68;;;24.00;57.30;;;;;;5066010;28;20032;-83
2022/07/02 11:13:00;;;;;;;0.95;0.68;;;24.30;56.80;;;;;;5066386;28;20036;-82
2022/07/02 11:15:36;;;;;;;0.52;0.45;;;24.50;54.10;;;;;;5066296;28;20030;-82
2022/07/02 11:18:06;;;;;;;0.73;0.50;;;24.30;54.50;;;;;;5068756;28;20037;-82
2022/07/02 11:20:35;;;;;;;0.82;0.68;;;24.40;54.50;;;;;;5070041;28;20017;-79
2022/07/02 11:23:01;;;;;;;1.00;0.60;;;24.60;53.50;;;;;;5061372;28;20013;-79
2022/07/02 11:25:30;;;;;;;1.42;0.60;;;24.60;53.60;;;;;;5052870;28;20032;-80
2022/07/02 11:28:00;;;;;;;1.35;0.60;;;24.60;53.40;;;;;;5046796;28;20056;-82
2022/07/02 11:30:31;;;;;;;1.33;0.65;;;24.50;54.60;;;;;;5047553;28;20021;-82
2022/07/02 11:32:57;;;;;;;2.28;0.70;;;24.60;53.10;;;;;;5050204;28;20048;-80
2022/07/02 11:35:23;;;;;;;0.80;0.60;;;24.40;52.90;;;;;;5047980;28;20017;-82
2022/07/02 11:37:59;;;;;;;0.68;0.40;;;24.40;53.40;;;;;;5046218;28;20040;-82
2022/07/02 11:40:26;;;;;;;1.40;0.60;;;24.60;51.90;;;;;;5067232;28;20040;-82
2022/07/02 11:42:52;;;;;;;0.95;0.80;;;24.70;50.70;;;;;;5066441;28;20040;-80
2022/07/02 11:45:18;;;;;;;0.50;0.50;;;24.80;51.30;;;;;;5067114;28;20047;-82
2022/07/02 11:47:49;;;;;;;0.55;0.45;;;24.90;49.40;;;;;;5068469;28;20021;-82
2022/07/02 11:50:27;;;;;;;0.73;0.43;;;24.90;49.00;;;;;;5070278;28;20021;-81
2022/07/02 11:52:52;;;;;;;0.57;0.40;;;25.10;48.40;;;;;;5070671;28;20029;-81
2022/07/02 11:55:18;;;;;;;0.90;0.40;;;25.20;48.10;;;;;;5071866;28;20017;-81
2022/07/02 11:57:44;;;;;;;2.92;0.40;;;25.30;46.80;;;;;;5071059;28;20025;-80
2022/07/02 12:00:11;;;;;;;0.40;0.40;;;25.40;45.70;;;;;;5072518;28;20029;-80
2022/07/02 12:02:40;;;;;;;2.97;0.60;;;25.20;46.20;;;;;;5073311;28;20020;-81
2022/07/02 12:05:19;;;;;;;0.65;0.43;;;25.00;47.30;;;;;;5072606;28;20036;-82
2022/07/02 12:07:46;;;;;;;1.75;0.70;;;24.90;47.10;;;;;;5076461;28;20048;-79
2022/07/02 12:10:13;;;;;;;0.55;0.52;;;24.90;48.10;;;;;;5084754;28;20032;-79
2022/07/02 12:12:40;;;;;;;0.43;0.43;;;25.00;47.70;;;;;;5090917;28;20640;-79
2022/07/02 12:15:06;;;;;;;1.05;0.35;;;25.10;47.60;;;;;;5057618;28;20097;-80
2022/07/02 12:17:35;;;;;;;0.50;0.50;;;25.40;47.70;;;;;;5050784;28;20027;-80
2022/07/02 12:20:05;;;;;;;0.32;0.32;;;25.70;47.30;;;;;;5051098;28;20088;-80
2022/07/02 12:22:33;;;;;;;0.50;0.50;;;25.70;45.60;;;;;;5053251;28;20037;-81
2022/07/02 12:24:59;;;;;;;0.43;0.40;;;25.70;46.40;;;;;;5054136;28;20064;-80
2022/07/02 12:27:25;;;;;;;0.60;0.60;;;25.70;46.00;;;;;;5055406;28;20025;-80
2022/07/02 12:29:56;;;;;;;0.30;0.30;;;25.70;46.90;;;;;;5058233;28;20029;-78
2022/07/02 12:32:32;;;;;;;0.73;0.70;;;26.00;47.20;;;;;;5057955;28;20030;-79
2022/07/02 12:35:07;;;;;;;1.00;0.30;;;26.00;45.80;;;;;;5056878;28;20085;-80
2022/07/02 12:37:59;;;;;;;2.10;0.63;;;25.70;46.30;;;;;;5057626;28;20081;-79
2022/07/02 12:40:28;;;;;;;1.77;0.50;;;25.50;46.10;;;;;;5074715;28;20021;-79
2022/07/02 12:42:55;;;;;;;0.55;0.50;;;25.60;47.20;;;;;;5070081;22;20046;-82
2022/07/02 12:45:30;;;;;;;2.38;0.88;;;25.60;46.60;;;;;;5030673;28;20018;-81
2022/07/02 12:48:16;;;;;;;0.50;0.50;;;25.60;46.50;;;;;;5022456;28;20069;-82
2022/07/02 12:50:46;;;;;;;2.72;0.60;;;25.50;48.20;;;;;;5005625;28;20387;-82
2022/07/02 12:53:22;;;;;;;0.40;0.40;;;25.80;47.40;;;;;;5001342;28;20050;-83
2022/07/02 12:55:58;;;;;;;0.68;0.50;;;25.80;46.80;;;;;;5002354;28;20026;-82